RPLLRPLI

Guest
Details From RPLL - Manille Ninoy Aquino Intl
To RPLI - Laoag Intl
Flight Number -
Tags Generated
Created
Modified
Stats Distance 220 nm / 408 km
Max Altitude 0 ft / 0 m
Waypoints 3
Social Downloads 2
Likes 0
Share VATSIM

Download

Looking for another format? Having issues loading an existing format? Contact us
Advertisement - Login to hide

Notes

Generated

Route

RPLL PAYAS RPLI

ID Type Via Altitude Latitude Longitude Leg Dist Tot Dist Heading (true) Name
O RPLL APT - 0 ft / 0 m 14.52421˚ 121.00346˚ - 0 nm - -
PAYAS FIX - 0 ft / 0 m 18.01407˚ 120.55975˚ 211 nm 211 nm 353° / 353° -
O RPLI APT - 0 ft / 0 m 18.16364˚ 120.52987˚ 9 nm 220 nm 349° / 349° -

Altitude Profile

Advertisement - Login to hide

Weather


0- 5 10 15 20 25 30 35+ Temperature / ° C

Clouds and Precipitation
Forecast for 2017-12-17 00:00 UTC. Updated a minute ago

Ground ~20,000 ft ~40,000 ft Winds

RPLL

Details ICAO RPLL (MNL)
Name Ninoy Aquino International Airport
Region Philippines
Timezone Asia/Manila (UTC+8.0)
Stats Elevation 75 ft / 23 m (AMSL)
Location 14.511513° 121.012718°
Runways 2
Magnetic Variation 2.158° W

METAR

RPLL 161900Z 35011KT 9999 SCT023 OVC100 26/17 Q1008 NOSIG RMK A2977

Decode

TAF

TAF RPLL 161700Z 1618/1724 02010KT 9999 SCT023 BKN100 TX30/1706Z TN23/1621Z TEMPO 1618/1624 36008KT 9000 -SHRA SCT023 OVC100 TEMPO 1703/1709 04012G24KT 9000 -RA SCT022 OVC090

Decode

Departure Runways

ID Width Length Bearing (true) Bearing (mag) Surface Threshold Offset Overrun Length
06 211 ft / 64 m 11,788 ft / 3,593 m 60.18° 62.34° Asphalt 587 ft / 179 m 0 ft / 0 m
13 151 ft / 46 m 5,850 ft / 1,783 m 134.93° 137.09° Asphalt 0 ft / 0 m 696 ft / 212 m
24 211 ft / 64 m 11,788 ft / 3,593 m 240.19° 242.35° Asphalt 0 ft / 0 m 331 ft / 101 m
31 151 ft / 46 m 5,850 ft / 1,783 m 314.93° 317.09° Asphalt 0 ft / 0 m 459 ft / 140 m

RPLI

Details ICAO RPLI (LAO)
Name LAOAG INTL
Region Philippines
Timezone Asia/Manila (UTC+8.0)
Stats Elevation 25 ft / 8 m (AMSL)
Location 18.176144° 120.531104°
Runways 1
Magnetic Variation 2.865° W

METAR

RPLI 161800Z 06012G26KT 9999 FEW019 BKN280 24/16 Q1012 NOSIG RMK A2988

Decode

TAF

TAF RPLI 161700Z 1618/1718 04012G22KT 9999 FEW019 BKN280 TEMPO 1618/1624 06014G28KT FEW019 BKN100

Decode

Destination Runways

ID Width Length Bearing (true) Bearing (mag) Surface Threshold Offset Overrun Length
01 148 ft / 45 m 9,165 ft / 2,793 m 5.37° 8.24° Concrete 1,181 ft / 360 m 1,200 ft / 366 m
19 148 ft / 45 m 9,165 ft / 2,793 m 185.37° 188.24° Concrete 0 ft / 0 m 0 ft / 0 m

Popular Alternatives